sensor_id;sensor_type;location;lat;lon;timestamp;pressure;altitude;pressure_sealevel;temperature;humidity
36932;BME280;22847;42.654;23.370;2022-12-29T00:02:11;95428.91;;;6.98;68.78
36932;BME280;22847;42.654;23.370;2022-12-29T00:04:37;95616.16;;;7.66;69.70
36932;BME280;22847;42.654;23.370;2022-12-29T00:07:03;95556.06;;;7.59;69.09
36932;BME280;22847;42.654;23.370;2022-12-29T00:09:30;95594.25;;;7.83;68.23
36932;BME280;22847;42.654;23.370;2022-12-29T00:11:55;95633.78;;;8.12;67.78
36932;BME280;22847;42.654;23.370;2022-12-29T00:14:21;95508.09;;;7.52;67.82
36932;BME280;22847;42.654;23.370;2022-12-29T00:17:05;95566.34;;;7.74;67.68
36932;BME280;22847;42.654;23.370;2022-12-29T00:19:30;95608.66;;;8.12;67.39
36932;BME280;22847;42.654;23.370;2022-12-29T00:22:14;95572.13;;;7.90;67.25
36932;BME280;22847;42.654;23.370;2022-12-29T00:24:58;95346.44;;;6.40;67.51
36932;BME280;22847;42.654;23.370;2022-12-29T00:27:30;95419.34;;;6.86;67.32
36932;BME280;22847;42.654;23.370;2022-12-29T00:30:17;95596.41;;;7.89;67.36
36932;BME280;22847;42.654;23.370;2022-12-29T00:33:09;95571.00;;;7.69;67.22
36932;BME280;22847;42.654;23.370;2022-12-29T00:36:00;95647.31;;;8.04;67.09
36932;BME280;22847;42.654;23.370;2022-12-29T00:38:27;95595.59;;;7.88;67.27
36932;BME280;22847;42.654;23.370;2022-12-29T00:41:13;95567.78;;;7.78;67.04
36932;BME280;22847;42.654;23.370;2022-12-29T00:43:57;95391.13;;;6.43;67.86
36932;BME280;22847;42.654;23.370;2022-12-29T00:46:33;95576.38;;;7.66;67.37
36932;BME280;22847;42.654;23.370;2022-12-29T00:48:59;95594.59;;;7.78;67.45
36932;BME280;22847;42.654;23.370;2022-12-29T00:51:43;95622.59;;;7.86;67.72
36932;BME280;22847;42.654;23.370;2022-12-29T00:54:09;95422.31;;;6.42;68.29
36932;BME280;22847;42.654;23.370;2022-12-29T00:56:34;95627.47;;;7.52;68.63
36932;BME280;22847;42.654;23.370;2022-12-29T00:59:05;95619.59;;;7.67;68.49
36932;BME280;22847;42.654;23.370;2022-12-29T01:01:30;95380.53;;;6.21;68.37
36932;BME280;22847;42.654;23.370;2022-12-29T01:03:56;95594.69;;;7.51;68.66
36932;BME280;22847;42.654;23.370;2022-12-29T01:06:22;95632.34;;;7.44;68.56
36932;BME280;22847;42.654;23.370;2022-12-29T01:08:48;95578.38;;;7.49;68.06
36932;BME280;22847;42.654;23.370;2022-12-29T01:11:33;95620.81;;;7.61;68.44
36932;BME280;22847;42.654;23.370;2022-12-29T01:13:58;95615.31;;;7.53;68.91
36932;BME280;22847;42.654;23.370;2022-12-29T01:16:24;95361.97;;;6.14;68.58
36932;BME280;22847;42.654;23.370;2022-12-29T01:18:49;95609.72;;;7.72;68.20
36932;BME280;22847;42.654;23.370;2022-12-29T01:21:15;95542.06;;;7.24;68.66
36932;BME280;22847;42.654;23.370;2022-12-29T01:23:40;95549.75;;;7.38;68.11
36932;BME280;22847;42.654;23.370;2022-12-29T01:26:13;95384.28;;;6.55;67.49
36932;BME280;22847;42.654;23.370;2022-12-29T01:28:38;95639.63;;;7.90;67.84
36932;BME280;22847;42.654;23.370;2022-12-29T01:31:05;95393.66;;;6.57;67.65
36932;BME280;22847;42.654;23.370;2022-12-29T01:33:31;95598.31;;;7.36;68.78
36932;BME280;22847;42.654;23.370;2022-12-29T01:36:04;95604.53;;;7.59;69.01
36932;BME280;22847;42.654;23.370;2022-12-29T01:38:31;95341.03;;;6.05;68.61
36932;BME280;22847;42.654;23.370;2022-12-29T01:40:56;95363.22;;;6.21;68.76
36932;BME280;22847;42.654;23.370;2022-12-29T01:43:39;95555.34;;;7.32;68.92
36932;BME280;22847;42.654;23.370;2022-12-29T01:46:12;95565.50;;;7.35;68.91
36932;BME280;22847;42.654;23.370;2022-12-29T01:48:39;95330.97;;;5.88;68.69
36932;BME280;22847;42.654;23.370;2022-12-29T01:51:05;95595.41;;;7.53;69.04
36932;BME280;22847;42.654;23.370;2022-12-29T01:53:33;95573.28;;;7.23;69.92
36932;BME280;22847;42.654;23.370;2022-12-29T01:56:04;95550.44;;;7.02;69.64
36932;BME280;22847;42.654;23.370;2022-12-29T01:58:35;95586.69;;;7.42;69.38
36932;BME280;22847;42.654;23.370;2022-12-29T02:01:03;95548.56;;;7.30;69.03
36932;BME280;22847;42.654;23.370;2022-12-29T02:03:30;95515.28;;;7.11;68.43
36932;BME280;22847;42.654;23.370;2022-12-29T02:06:17;95560.13;;;7.63;68.08
36932;BME280;22847;42.654;23.370;2022-12-29T02:08:46;95380.88;;;6.42;68.47
36932;BME280;22847;42.654;23.370;2022-12-29T02:11:12;95333.50;;;6.14;68.53
36932;BME280;22847;42.654;23.370;2022-12-29T02:13:38;95524.44;;;7.29;68.47
36932;BME280;22847;42.654;23.370;2022-12-29T02:27:36;95567.78;;;7.52;68.77
36932;BME280;22847;42.654;23.370;2022-12-29T02:32:43;95576.09;;;7.57;68.56
36932;BME280;22847;42.654;23.370;2022-12-29T02:35:32;95565.31;;;7.51;68.82
36932;BME280;22847;42.654;23.370;2022-12-29T02:41:31;95528.13;;;7.12;69.36
36932;BME280;22847;42.654;23.370;2022-12-29T02:47:11;95623.53;;;7.59;69.15
36932;BME280;22847;42.654;23.370;2022-12-29T02:49:59;95512.16;;;7.31;68.71
36932;BME280;22847;42.654;23.370;2022-12-29T02:52:34;95560.00;;;7.78;68.41
36932;BME280;22847;42.654;23.370;2022-12-29T02:55:00;95565.91;;;7.80;68.13
36932;BME280;22847;42.654;23.370;2022-12-29T03:05:15;95553.53;;;7.96;67.59
36932;BME280;22847;42.654;23.370;2022-12-29T03:13:01;95556.31;;;7.93;67.89
36932;BME280;22847;42.654;23.370;2022-12-29T03:15:53;95590.41;;;8.01;67.61
36932;BME280;22847;42.654;23.370;2022-12-29T03:21:22;95560.91;;;7.89;68.23
36932;BME280;22847;42.654;23.370;2022-12-29T03:24:10;95549.59;;;7.90;67.84
36932;BME280;22847;42.654;23.370;2022-12-29T03:26:37;95337.56;;;6.56;67.97
36932;BME280;22847;42.654;23.370;2022-12-29T03:29:04;95304.91;;;6.41;68.41
36932;BME280;22847;42.654;23.370;2022-12-29T03:31:31;95536.13;;;7.60;69.10
36932;BME280;22847;42.654;23.370;2022-12-29T03:33:57;95546.19;;;7.65;68.62
36932;BME280;22847;42.654;23.370;2022-12-29T03:36:29;95482.72;;;7.32;68.35
36932;BME280;22847;42.654;23.370;2022-12-29T03:39:08;95546.41;;;7.61;68.27
36932;BME280;22847;42.654;23.370;2022-12-29T03:41:37;95559.50;;;7.60;68.33
36932;BME280;22847;42.654;23.370;2022-12-29T03:44:08;95558.66;;;7.59;68.32
36932;BME280;22847;42.654;23.370;2022-12-29T03:46:34;95343.16;;;6.38;68.00
36932;BME280;22847;42.654;23.370;2022-12-29T03:49:00;95444.41;;;6.72;68.16
36932;BME280;22847;42.654;23.370;2022-12-29T03:51:25;95550.63;;;7.12;68.88
36932;BME280;22847;42.654;23.370;2022-12-29T03:53:50;95564.47;;;7.38;69.15
36932;BME280;22847;42.654;23.370;2022-12-29T03:56:16;95431.81;;;6.28;69.99
36932;BME280;22847;42.654;23.370;2022-12-29T03:58:41;95575.97;;;7.21;69.27
36932;BME280;22847;42.654;23.370;2022-12-29T04:01:07;95525.69;;;6.71;69.70
36932;BME280;22847;42.654;23.370;2022-12-29T04:03:32;95574.81;;;7.12;69.13
36932;BME280;22847;42.654;23.370;2022-12-29T04:05:58;95582.63;;;6.73;69.70
36932;BME280;22847;42.654;23.370;2022-12-29T04:08:23;95573.72;;;6.90;69.86
36932;BME280;22847;42.654;23.370;2022-12-29T04:10:49;95549.66;;;6.75;69.48
36932;BME280;22847;42.654;23.370;2022-12-29T04:13:15;95566.75;;;6.78;69.44
36932;BME280;22847;42.654;23.370;2022-12-29T04:15:42;95576.47;;;7.01;69.45
36932;BME280;22847;42.654;23.370;2022-12-29T04:18:08;95519.09;;;6.53;69.73
36932;BME280;22847;42.654;23.370;2022-12-29T04:20:33;95312.56;;;5.12;70.69
36932;BME280;22847;42.654;23.370;2022-12-29T04:23:17;95536.03;;;6.59;70.41
36932;BME280;22847;42.654;23.370;2022-12-29T04:25:45;95567.38;;;6.68;70.61
36932;BME280;22847;42.654;23.370;2022-12-29T04:28:11;95592.19;;;6.85;70.18
36932;BME280;22847;42.654;23.370;2022-12-29T04:30:36;95446.72;;;6.25;69.72
36932;BME280;22847;42.654;23.370;2022-12-29T04:33:02;95331.38;;;5.67;68.98
36932;BME280;22847;42.654;23.370;2022-12-29T04:35:27;95363.13;;;5.83;68.54
36932;BME280;22847;42.654;23.370;2022-12-29T04:37:52;95588.09;;;7.21;68.85
36932;BME280;22847;42.654;23.370;2022-12-29T04:40:18;95584.88;;;7.17;68.42
36932;BME280;22847;42.654;23.370;2022-12-29T04:42:43;95586.56;;;7.18;68.50
36932;BME280;22847;42.654;23.370;2022-12-29T04:45:09;95452.94;;;6.35;67.70
36932;BME280;22847;42.654;23.370;2022-12-29T04:47:34;95567.13;;;6.98;67.74
36932;BME280;22847;42.654;23.370;2022-12-29T04:50:00;95565.06;;;7.03;67.63
36932;BME280;22847;42.654;23.370;2022-12-29T04:52:25;95583.50;;;6.99;68.28
36932;BME280;22847;42.654;23.370;2022-12-29T04:54:50;95401.16;;;5.96;68.21
36932;BME280;22847;42.654;23.370;2022-12-29T04:57:16;95239.34;;;4.84;68.27
36932;BME280;22847;42.654;23.370;2022-12-29T04:59:41;95586.09;;;6.99;67.79
36932;BME280;22847;42.654;23.370;2022-12-29T05:02:07;95596.38;;;7.00;68.42
36932;BME280;22847;42.654;23.370;2022-12-29T05:04:32;95595.72;;;6.84;68.63
36932;BME280;22847;42.654;23.370;2022-12-29T05:06:57;95602.81;;;7.07;68.73
36932;BME280;22847;42.654;23.370;2022-12-29T05:09:23;95613.47;;;7.03;68.74
36932;BME280;22847;42.654;23.370;2022-12-29T05:11:49;95641.28;;;7.01;68.75
36932;BME280;22847;42.654;23.370;2022-12-29T05:14:14;95550.50;;;6.49;69.65
36932;BME280;22847;42.654;23.370;2022-12-29T05:16:40;95633.03;;;6.82;69.43
36932;BME280;22847;42.654;23.370;2022-12-29T05:19:05;95612.16;;;6.97;69.43
36932;BME280;22847;42.654;23.370;2022-12-29T05:21:30;95388.28;;;5.67;69.69
36932;BME280;22847;42.654;23.370;2022-12-29T05:23:56;95614.59;;;6.86;69.24
36932;BME280;22847;42.654;23.370;2022-12-29T05:26:21;95370.09;;;5.69;69.01
36932;BME280;22847;42.654;23.370;2022-12-29T05:28:47;95595.25;;;7.04;69.12
36932;BME280;22847;42.654;23.370;2022-12-29T05:31:12;95589.28;;;6.90;68.76
36932;BME280;22847;42.654;23.370;2022-12-29T05:33:37;95362.59;;;5.52;68.80
36932;BME280;22847;42.654;23.370;2022-12-29T05:36:07;95428.97;;;6.06;68.66
36932;BME280;22847;42.654;23.370;2022-12-29T05:38:32;95549.84;;;6.72;69.01
36932;BME280;22847;42.654;23.370;2022-12-29T05:40:58;95611.53;;;7.06;68.93
36932;BME280;22847;42.654;23.370;2022-12-29T05:43:23;95610.50;;;7.09;69.06
36932;BME280;22847;42.654;23.370;2022-12-29T05:45:49;95629.69;;;7.06;68.84
36932;BME280;22847;42.654;23.370;2022-12-29T05:48:15;95628.09;;;6.91;69.16
36932;BME280;22847;42.654;23.370;2022-12-29T05:50:40;95660.31;;;7.14;69.28
36932;BME280;22847;42.654;23.370;2022-12-29T05:53:06;95624.63;;;7.17;68.79
36932;BME280;22847;42.654;23.370;2022-12-29T05:55:31;95625.53;;;7.16;68.23
36932;BME280;22847;42.654;23.370;2022-12-29T05:57:56;95588.44;;;6.89;68.67
36932;BME280;22847;42.654;23.370;2022-12-29T06:00:22;95412.09;;;5.87;68.36
36932;BME280;22847;42.654;23.370;2022-12-29T06:02:47;95610.19;;;7.13;68.59
36932;BME280;22847;42.654;23.370;2022-12-29T06:05:13;95574.38;;;6.93;68.65
36932;BME280;22847;42.654;23.370;2022-12-29T06:07:38;95602.31;;;7.15;68.58
36932;BME280;22847;42.654;23.370;2022-12-29T06:10:05;95659.31;;;7.29;68.74
36932;BME280;22847;42.654;23.370;2022-12-29T06:12:30;95664.69;;;7.26;68.92
36932;BME280;22847;42.654;23.370;2022-12-29T06:14:56;95593.03;;;6.98;68.88
36932;BME280;22847;42.654;23.370;2022-12-29T06:17:21;95604.69;;;7.05;68.86
36932;BME280;22847;42.654;23.370;2022-12-29T06:19:47;95510.41;;;6.54;69.04
36932;BME280;22847;42.654;23.370;2022-12-29T06:22:12;95618.44;;;7.45;69.16
36932;BME280;22847;42.654;23.370;2022-12-29T06:24:38;95577.41;;;7.25;69.02
36932;BME280;22847;42.654;23.370;2022-12-29T06:27:03;95496.09;;;6.88;68.53
36932;BME280;22847;42.654;23.370;2022-12-29T06:29:29;95609.94;;;7.81;68.14
36932;BME280;22847;42.654;23.370;2022-12-29T06:31:54;95616.53;;;8.36;66.42
36932;BME280;22847;42.654;23.370;2022-12-29T06:34:24;95622.34;;;9.34;64.45
36932;BME280;22847;42.654;23.370;2022-12-29T06:36:49;95589.53;;;10.00;60.56
36932;BME280;22847;42.654;23.370;2022-12-29T06:39:15;95648.03;;;11.17;57.87
36932;BME280;22847;42.654;23.370;2022-12-29T06:41:40;95632.13;;;11.73;55.80
36932;BME280;22847;42.654;23.370;2022-12-29T06:44:05;95574.06;;;11.48;55.51
36932;BME280;22847;42.654;23.370;2022-12-29T06:46:31;95633.00;;;12.34;53.79
36932;BME280;22847;42.654;23.370;2022-12-29T06:48:56;95625.72;;;12.07;53.87
36932;BME280;22847;42.654;23.370;2022-12-29T06:51:22;95610.91;;;11.13;56.19
36932;BME280;22847;42.654;23.370;2022-12-29T06:53:47;95622.22;;;10.60;57.98
36932;BME280;22847;42.654;23.370;2022-12-29T06:56:12;95512.66;;;9.50;59.51
36932;BME280;22847;42.654;23.370;2022-12-29T06:58:38;95157.22;;;6.90;60.66
36932;BME280;22847;42.654;23.370;2022-12-29T07:01:04;95648.94;;;9.62;62.75
36932;BME280;22847;42.654;23.370;2022-12-29T07:03:29;95621.75;;;9.42;62.24
36932;BME280;22847;42.654;23.370;2022-12-29T07:05:54;95598.91;;;9.34;62.26
36932;BME280;22847;42.654;23.370;2022-12-29T07:08:20;95620.59;;;10.25;60.85
36932;BME280;22847;42.654;23.370;2022-12-29T07:10:46;95689.41;;;10.79;59.19
36932;BME280;22847;42.654;23.370;2022-12-29T07:13:11;95622.63;;;10.98;58.32
36932;BME280;22847;42.654;23.370;2022-12-29T07:15:37;95427.59;;;9.62;58.61
36932;BME280;22847;42.654;23.370;2022-12-29T07:18:03;95650.22;;;10.58;59.36
36932;BME280;22847;42.654;23.370;2022-12-29T07:20:29;95648.56;;;10.35;59.46
36932;BME280;22847;42.654;23.370;2022-12-29T07:22:55;95419.09;;;9.26;59.47
36932;BME280;22847;42.654;23.370;2022-12-29T07:25:20;95640.22;;;12.11;56.24
36932;BME280;22847;42.654;23.370;2022-12-29T07:27:46;95437.53;;;12.93;51.24
36932;BME280;22847;42.654;23.370;2022-12-29T07:30:12;95570.03;;;15.35;46.63
36932;BME280;22847;42.654;23.370;2022-12-29T07:32:37;95647.53;;;17.04;43.54
36932;BME280;22847;42.654;23.370;2022-12-29T07:35:03;95428.00;;;17.03;40.75
36932;BME280;22847;42.654;23.370;2022-12-29T07:37:28;95616.03;;;19.11;38.64
36932;BME280;22847;42.654;23.370;2022-12-29T07:39:54;95626.09;;;19.69;36.77
36932;BME280;22847;42.654;23.370;2022-12-29T07:42:19;95614.03;;;19.89;36.37
36932;BME280;22847;42.654;23.370;2022-12-29T07:44:45;95445.31;;;19.16;35.65
36932;BME280;22847;42.654;23.370;2022-12-29T07:47:10;95621.81;;;20.72;34.71
36932;BME280;22847;42.654;23.370;2022-12-29T07:49:35;95403.56;;;19.27;34.67
36932;BME280;22847;42.654;23.370;2022-12-29T07:52:01;95578.13;;;20.68;34.02
36932;BME280;22847;42.654;23.370;2022-12-29T07:54:26;95590.00;;;21.16;33.21
36932;BME280;22847;42.654;23.370;2022-12-29T07:56:52;95437.19;;;19.99;33.38
36932;BME280;22847;42.654;23.370;2022-12-29T07:59:17;95611.94;;;20.81;33.69
36932;BME280;22847;42.654;23.370;2022-12-29T08:01:43;95583.88;;;20.28;34.02
36932;BME280;22847;42.654;23.370;2022-12-29T08:04:08;95612.25;;;20.19;34.75
36932;BME280;22847;42.654;23.370;2022-12-29T08:06:34;95625.91;;;19.93;35.53
36932;BME280;22847;42.654;23.370;2022-12-29T08:08:59;95452.16;;;18.57;35.99
36932;BME280;22847;42.654;23.370;2022-12-29T08:11:26;95530.09;;;18.53;36.55
36932;BME280;22847;42.654;23.370;2022-12-29T08:13:52;95633.50;;;18.89;37.46
36932;BME280;22847;42.654;23.370;2022-12-29T08:16:17;95610.56;;;18.18;38.31
36932;BME280;22847;42.654;23.370;2022-12-29T08:18:43;95564.44;;;17.42;39.57
36932;BME280;22847;42.654;23.370;2022-12-29T08:21:09;95626.34;;;17.29;40.25
36932;BME280;22847;42.654;23.370;2022-12-29T08:23:34;95637.44;;;16.83;41.41
36932;BME280;22847;42.654;23.370;2022-12-29T08:26:01;95623.13;;;16.51;41.68
36932;BME280;22847;42.654;23.370;2022-12-29T08:28:28;95643.16;;;16.19;42.79
36932;BME280;22847;42.654;23.370;2022-12-29T08:30:57;95606.22;;;16.02;43.59
36932;BME280;22847;42.654;23.370;2022-12-29T08:33:22;95621.72;;;16.39;42.78
36932;BME280;22847;42.654;23.370;2022-12-29T08:35:48;95625.41;;;16.46;42.88
36932;BME280;22847;42.654;23.370;2022-12-29T08:38:13;95623.88;;;16.44;42.89
36932;BME280;22847;42.654;23.370;2022-12-29T08:40:39;95573.38;;;16.06;43.25
36932;BME280;22847;42.654;23.370;2022-12-29T08:43:04;95555.16;;;15.87;43.31
36932;BME280;22847;42.654;23.370;2022-12-29T08:45:30;95602.22;;;15.73;43.74
36932;BME280;22847;42.654;23.370;2022-12-29T08:47:56;95587.97;;;15.40;44.19
36932;BME280;22847;42.654;23.370;2022-12-29T08:50:21;95621.06;;;15.33;44.78
36932;BME280;22847;42.654;23.370;2022-12-29T08:52:46;95409.97;;;13.82;44.65
36932;BME280;22847;42.654;23.370;2022-12-29T08:55:12;95616.59;;;14.80;46.07
36932;BME280;22847;42.654;23.370;2022-12-29T08:57:37;95571.41;;;14.59;45.67
36932;BME280;22847;42.654;23.370;2022-12-29T09:00:04;95584.03;;;14.91;44.83
36932;BME280;22847;42.654;23.370;2022-12-29T09:02:29;95614.22;;;15.04;44.55
36932;BME280;22847;42.654;23.370;2022-12-29T09:04:55;95554.34;;;14.90;45.19
36932;BME280;22847;42.654;23.370;2022-12-29T09:07:22;95321.25;;;13.60;45.17
36932;BME280;22847;42.654;23.370;2022-12-29T09:09:48;95613.50;;;15.47;44.41
36932;BME280;22847;42.654;23.370;2022-12-29T09:12:13;95593.75;;;15.43;44.52
36932;BME280;22847;42.654;23.370;2022-12-29T09:14:39;95408.41;;;14.17;44.24
36932;BME280;22847;42.654;23.370;2022-12-29T09:17:04;95581.91;;;15.39;44.68
36932;BME280;22847;42.654;23.370;2022-12-29T09:19:48;95598.19;;;15.60;43.50
36932;BME280;22847;42.654;23.370;2022-12-29T09:22:13;95594.94;;;15.84;43.83
36932;BME280;22847;42.654;23.370;2022-12-29T09:24:39;95600.13;;;16.02;44.24
36932;BME280;22847;42.654;23.370;2022-12-29T09:27:04;95469.06;;;15.63;50.55
36932;BME280;22847;42.654;23.370;2022-12-29T09:29:30;95548.56;;;17.09;52.61
36932;BME280;22847;42.654;23.370;2022-12-29T09:31:55;95481.88;;;18.12;45.11
36932;BME280;22847;42.654;23.370;2022-12-29T09:34:21;95396.69;;;18.57;42.80
36932;BME280;22847;42.654;23.370;2022-12-29T09:36:46;95395.69;;;19.04;38.47
36932;BME280;22847;42.654;23.370;2022-12-29T09:39:12;95543.19;;;19.91;37.81
36932;BME280;22847;42.654;23.370;2022-12-29T09:41:44;95550.88;;;20.01;39.86
36932;BME280;22847;42.654;23.370;2022-12-29T09:46:54;95608.13;;;20.83;39.68
36932;BME280;22847;42.654;23.370;2022-12-29T09:49:24;95569.13;;;20.48;38.43
36932;BME280;22847;42.654;23.370;2022-12-29T09:51:56;95504.00;;;19.35;40.55
36932;BME280;22847;42.654;23.370;2022-12-29T09:54:36;95548.19;;;18.73;40.96
36932;BME280;22847;42.654;23.370;2022-12-29T09:57:13;95528.94;;;17.93;40.88
36932;BME280;22847;42.654;23.370;2022-12-29T09:59:41;95545.81;;;17.75;46.29
36932;BME280;22847;42.654;23.370;2022-12-29T10:02:40;95557.22;;;17.60;45.43
36932;BME280;22847;42.654;23.370;2022-12-29T10:05:39;95557.34;;;16.60;44.67
36932;BME280;22847;42.654;23.370;2022-12-29T10:08:44;95562.00;;;16.06;46.80
36932;BME280;22847;42.654;23.370;2022-12-29T10:11:28;95561.13;;;15.72;48.51
36932;BME280;22847;42.654;23.370;2022-12-29T10:22:36;95547.06;;;14.02;50.69
36932;BME280;22847;42.654;23.370;2022-12-29T10:25:12;95399.34;;;13.84;50.94
36932;BME280;22847;42.654;23.370;2022-12-29T10:27:40;95351.09;;;13.77;49.72
36932;BME280;22847;42.654;23.370;2022-12-29T10:30:12;95532.53;;;14.90;48.63
36932;BME280;22847;42.654;23.370;2022-12-29T10:32:44;95530.69;;;14.72;48.45
36932;BME280;22847;42.654;23.370;2022-12-29T10:35:14;95541.41;;;13.97;49.93
36932;BME280;22847;42.654;23.370;2022-12-29T10:40:18;95521.31;;;14.70;48.86
36932;BME280;22847;42.654;23.370;2022-12-29T10:42:53;95312.06;;;13.74;51.77
36932;BME280;22847;42.654;23.370;2022-12-29T10:45:21;95274.66;;;13.81;50.96
36932;BME280;22847;42.654;23.370;2022-12-29T10:47:56;95514.59;;;15.46;53.21
36932;BME280;22847;42.654;23.370;2022-12-29T10:50:23;95302.25;;;13.58;49.07
36932;BME280;22847;42.654;23.370;2022-12-29T10:52:49;95496.59;;;14.90;48.99
36932;BME280;22847;42.654;23.370;2022-12-29T10:55:21;95509.88;;;15.32;50.96
36932;BME280;22847;42.654;23.370;2022-12-29T10:57:48;95509.94;;;15.40;51.25
36932;BME280;22847;42.654;23.370;2022-12-29T11:00:20;95491.69;;;15.56;49.97
36932;BME280;22847;42.654;23.370;2022-12-29T11:05:47;95292.88;;;14.36;49.93
36932;BME280;22847;42.654;23.370;2022-12-29T11:08:18;95508.53;;;15.72;48.80
36932;BME280;22847;42.654;23.370;2022-12-29T11:10:46;95484.16;;;15.61;48.01
36932;BME280;22847;42.654;23.370;2022-12-29T11:13:17;95474.13;;;15.57;49.19
36932;BME280;22847;42.654;23.370;2022-12-29T11:15:48;95297.41;;;14.52;50.40
36932;BME280;22847;42.654;23.370;2022-12-29T11:18:35;95484.16;;;15.87;49.30
36932;BME280;22847;42.654;23.370;2022-12-29T11:21:05;95501.88;;;15.85;49.74
36932;BME280;22847;42.654;23.370;2022-12-29T11:23:41;95466.78;;;15.43;50.12
36932;BME280;22847;42.654;23.370;2022-12-29T11:28:35;95382.88;;;15.24;49.59
36932;BME280;22847;42.654;23.370;2022-12-29T11:31:02;95280.06;;;14.85;50.70
36932;BME280;22847;42.654;23.370;2022-12-29T11:33:28;95470.09;;;16.13;47.90
36932;BME280;22847;42.654;23.370;2022-12-29T11:36:27;95430.59;;;15.96;49.60
36932;BME280;22847;42.654;23.370;2022-12-29T11:38:55;95440.34;;;16.12;48.54
36932;BME280;22847;42.654;23.370;2022-12-29T11:41:26;95464.22;;;16.19;47.92
36932;BME280;22847;42.654;23.370;2022-12-29T11:43:54;95468.47;;;16.12;48.93
36932;BME280;22847;42.654;23.370;2022-12-29T11:46:31;95458.44;;;16.07;46.94
36932;BME280;22847;42.654;23.370;2022-12-29T11:48:57;95475.09;;;15.90;47.40
36932;BME280;22847;42.654;23.370;2022-12-29T11:51:29;95272.84;;;14.87;46.03
36932;BME280;22847;42.654;23.370;2022-12-29T11:53:58;95459.69;;;16.03;45.58
36932;BME280;22847;42.654;23.370;2022-12-29T11:56:42;95426.38;;;15.70;47.78
36932;BME280;22847;42.654;23.370;2022-12-29T12:01:52;95445.75;;;15.43;48.19
36932;BME280;22847;42.654;23.370;2022-12-29T12:04:21;95250.53;;;14.57;46.57
36932;BME280;22847;42.654;23.370;2022-12-29T12:12:44;95445.78;;;15.25;48.83
36932;BME280;22847;42.654;23.370;2022-12-29T12:15:18;95417.69;;;15.00;50.02
36932;BME280;22847;42.654;23.370;2022-12-29T12:20:27;95467.31;;;14.50;49.69
36932;BME280;22847;42.654;23.370;2022-12-29T12:26:10;95442.84;;;14.85;50.01
36932;BME280;22847;42.654;23.370;2022-12-29T12:28:45;95434.13;;;15.02;48.50
36932;BME280;22847;42.654;23.370;2022-12-29T12:34:03;95437.91;;;15.25;50.25
36932;BME280;22847;42.654;23.370;2022-12-29T12:36:58;95422.81;;;15.27;50.18
36932;BME280;22847;42.654;23.370;2022-12-29T12:39:33;95430.44;;;15.38;47.13
36932;BME280;22847;42.654;23.370;2022-12-29T12:42:06;95396.78;;;14.90;47.75
36932;BME280;22847;42.654;23.370;2022-12-29T12:44:52;95433.69;;;14.89;48.54
36932;BME280;22847;42.654;23.370;2022-12-29T12:54:24;95232.34;;;13.14;50.25
36932;BME280;22847;42.654;23.370;2022-12-29T13:01:42;95293.00;;;13.81;50.08
36932;BME280;22847;42.654;23.370;2022-12-29T13:07:12;95273.19;;;13.69;49.68
36932;BME280;22847;42.654;23.370;2022-12-29T13:12:42;95374.09;;;14.46;49.96
36932;BME280;22847;42.654;23.370;2022-12-29T13:15:28;95430.72;;;14.66;50.07
36932;BME280;22847;42.654;23.370;2022-12-29T13:18:11;95426.28;;;14.66;50.30
36932;BME280;22847;42.654;23.370;2022-12-29T13:20:47;95420.75;;;14.52;49.86
36932;BME280;22847;42.654;23.370;2022-12-29T13:25:59;95280.91;;;13.71;50.72
36932;BME280;22847;42.654;23.370;2022-12-29T13:28:45;95463.09;;;14.12;50.98
36932;BME280;22847;42.654;23.370;2022-12-29T13:31:16;95448.06;;;14.32;50.54
36932;BME280;22847;42.654;23.370;2022-12-29T13:33:54;95371.63;;;12.32;54.68
36932;BME280;22847;42.654;23.370;2022-12-29T13:36:29;95458.75;;;13.19;53.27
36932;BME280;22847;42.654;23.370;2022-12-29T13:41:51;95441.13;;;12.92;54.46
36932;BME280;22847;42.654;23.370;2022-12-29T13:44:38;95227.91;;;10.66;56.98
36932;BME280;22847;42.654;23.370;2022-12-29T13:49:53;95275.47;;;11.88;55.22
36932;BME280;22847;42.654;23.370;2022-12-29T13:57:53;95434.44;;;13.46;54.03
36932;BME280;22847;42.654;23.370;2022-12-29T14:00:25;95427.25;;;13.38;54.49
36932;BME280;22847;42.654;23.370;2022-12-29T14:05:45;95386.75;;;12.67;54.66
36932;BME280;22847;42.654;23.370;2022-12-29T14:08:16;95433.13;;;13.04;53.64
36932;BME280;22847;42.654;23.370;2022-12-29T14:10:48;95431.34;;;12.18;56.13
36932;BME280;22847;42.654;23.370;2022-12-29T14:13:21;95398.88;;;12.49;55.47
36932;BME280;22847;42.654;23.370;2022-12-29T14:15:59;95385.25;;;12.55;55.58
36932;BME280;22847;42.654;23.370;2022-12-29T14:18:26;95095.88;;;10.65;54.91
36932;BME280;22847;42.654;23.370;2022-12-29T14:26:14;95434.53;;;12.69;55.23
36932;BME280;22847;42.654;23.370;2022-12-29T14:28:45;95368.84;;;12.34;55.48
36932;BME280;22847;42.654;23.370;2022-12-29T14:36:52;95468.94;;;12.93;56.47
36932;BME280;22847;42.654;23.370;2022-12-29T14:42:19;95472.56;;;12.83;55.44
36932;BME280;22847;42.654;23.370;2022-12-29T14:44:59;95437.69;;;12.63;55.37
36932;BME280;22847;42.654;23.370;2022-12-29T14:50:07;95469.09;;;12.92;56.80
36932;BME280;22847;42.654;23.370;2022-12-29T14:57:44;95461.66;;;12.68;55.93
36932;BME280;22847;42.654;23.370;2022-12-29T15:00:22;95477.09;;;12.71;56.03
36932;BME280;22847;42.654;23.370;2022-12-29T15:03:01;95463.75;;;12.55;55.26
36932;BME280;22847;42.654;23.370;2022-12-29T15:05:32;95378.78;;;12.01;55.80
36932;BME280;22847;42.654;23.370;2022-12-29T15:07:59;95334.81;;;11.57;55.91
36932;BME280;22847;42.654;23.370;2022-12-29T15:10:27;95279.38;;;11.04;56.46
36932;BME280;22847;42.654;23.370;2022-12-29T15:13:03;95474.69;;;12.11;57.45
36932;BME280;22847;42.654;23.370;2022-12-29T15:15:36;95464.53;;;12.27;57.46
36932;BME280;22847;42.654;23.370;2022-12-29T15:18:31;95475.69;;;12.38;56.46